sensor_id;sensor_type;location;lat;lon;timestamp;pressure;altitude;pressure_sealevel;temperature;humidity
73151;BME280;61354;50.758;6.106;2023-07-31T00:00:12;98822.06;;;15.45;100.00
73151;BME280;61354;50.758;6.106;2023-07-31T00:02:38;98816.88;;;15.40;100.00
73151;BME280;61354;50.758;6.106;2023-07-31T00:05:04;98829.66;;;15.37;100.00
73151;BME280;61354;50.758;6.106;2023-07-31T00:07:32;98821.25;;;15.37;100.00
73151;BME280;61354;50.758;6.106;2023-07-31T00:09:57;98824.88;;;15.34;100.00
73151;BME280;61354;50.758;6.106;2023-07-31T00:12:23;98821.69;;;15.39;100.00
73151;BME280;61354;50.758;6.106;2023-07-31T00:14:49;98820.88;;;15.39;100.00
73151;BME280;61354;50.758;6.106;2023-07-31T00:17:17;98830.47;;;15.41;100.00
73151;BME280;61354;50.758;6.106;2023-07-31T00:19:43;98823.69;;;15.39;100.00
73151;BME280;61354;50.758;6.106;2023-07-31T00:22:11;98825.69;;;15.35;100.00
73151;BME280;61354;50.758;6.106;2023-07-31T00:24:36;98810.88;;;15.34;100.00
73151;BME280;61354;50.758;6.106;2023-07-31T00:27:02;98827.28;;;15.39;100.00
73151;BME280;61354;50.758;6.106;2023-07-31T00:29:28;98824.06;;;15.37;100.00
73151;BME280;61354;50.758;6.106;2023-07-31T00:31:53;98820.88;;;15.35;100.00
73151;BME280;61354;50.758;6.106;2023-07-31T00:34:19;98814.47;;;15.31;100.00
73151;BME280;61354;50.758;6.106;2023-07-31T00:36:44;98821.66;;;15.32;100.00
73151;BME280;61354;50.758;6.106;2023-07-31T00:39:10;98820.06;;;15.35;100.00
73151;BME280;61354;50.758;6.106;2023-07-31T00:41:35;98823.25;;;15.33;100.00
73151;BME280;61354;50.758;6.106;2023-07-31T00:44:01;98818.88;;;15.36;100.00
73151;BME280;61354;50.758;6.106;2023-07-31T00:46:26;98820.47;;;15.37;100.00
73151;BME280;61354;50.758;6.106;2023-07-31T00:48:52;98818.47;;;15.41;100.00
73151;BME280;61354;50.758;6.106;2023-07-31T00:51:18;98818.06;;;15.42;100.00
73151;BME280;61354;50.758;6.106;2023-07-31T00:53:43;98812.47;;;15.42;100.00
73151;BME280;61354;50.758;6.106;2023-07-31T00:56:10;98807.28;;;15.45;100.00
73151;BME280;61354;50.758;6.106;2023-07-31T00:58:36;98793.72;;;15.43;100.00
73151;BME280;61354;50.758;6.106;2023-07-31T01:01:02;98802.50;;;15.45;100.00
73151;BME280;61354;50.758;6.106;2023-07-31T01:03:27;98790.91;;;15.43;100.00
73151;BME280;61354;50.758;6.106;2023-07-31T01:06:14;98789.69;;;15.44;100.00
73151;BME280;61354;50.758;6.106;2023-07-31T01:11:36;98781.31;;;15.40;100.00
73151;BME280;61354;50.758;6.106;2023-07-31T01:14:02;98786.50;;;15.42;100.00
73151;BME280;61354;50.758;6.106;2023-07-31T01:16:28;98783.31;;;15.40;100.00
73151;BME280;61354;50.758;6.106;2023-07-31T01:18:54;98780.50;;;15.47;100.00
73151;BME280;61354;50.758;6.106;2023-07-31T01:24:23;98777.31;;;15.45;100.00
73151;BME280;61354;50.758;6.106;2023-07-31T01:27:09;98775.72;;;15.44;100.00
73151;BME280;61354;50.758;6.106;2023-07-31T01:29:47;98779.72;;;15.43;100.00
73151;BME280;61354;50.758;6.106;2023-07-31T01:32:16;98771.28;;;15.47;100.00
73151;BME280;61354;50.758;6.106;2023-07-31T01:34:44;98774.09;;;15.47;100.00
73151;BME280;61354;50.758;6.106;2023-07-31T01:37:09;98774.91;;;15.51;100.00
73151;BME280;61354;50.758;6.106;2023-07-31T01:39:35;98775.31;;;15.49;100.00
73151;BME280;61354;50.758;6.106;2023-07-31T01:42:00;98777.72;;;15.47;100.00
73151;BME280;61354;50.758;6.106;2023-07-31T01:44:26;98772.09;;;15.51;100.00
73151;BME280;61354;50.758;6.106;2023-07-31T01:46:52;98766.91;;;15.49;100.00
73151;BME280;61354;50.758;6.106;2023-07-31T01:49:17;98762.91;;;15.50;100.00
73151;BME280;61354;50.758;6.106;2023-07-31T01:51:43;98768.13;;;15.48;100.00
73151;BME280;61354;50.758;6.106;2023-07-31T01:54:09;98768.50;;;15.50;100.00
73151;BME280;61354;50.758;6.106;2023-07-31T01:56:34;98761.31;;;15.49;100.00
73151;BME280;61354;50.758;6.106;2023-07-31T01:59:00;98758.50;;;15.49;100.00
73151;BME280;61354;50.758;6.106;2023-07-31T02:01:25;98759.72;;;15.48;100.00
73151;BME280;61354;50.758;6.106;2023-07-31T02:03:51;98748.91;;;15.50;100.00
73151;BME280;61354;50.758;6.106;2023-07-31T02:06:16;98746.53;;;15.49;100.00
73151;BME280;61354;50.758;6.106;2023-07-31T02:08:42;98740.94;;;15.52;100.00
73151;BME280;61354;50.758;6.106;2023-07-31T02:11:08;98738.94;;;15.53;100.00
73151;BME280;61354;50.758;6.106;2023-07-31T02:13:33;98739.34;;;15.51;100.00
73151;BME280;61354;50.758;6.106;2023-07-31T02:15:59;98744.13;;;15.54;100.00
73151;BME280;61354;50.758;6.106;2023-07-31T02:18:24;98732.91;;;15.54;100.00
73151;BME280;61354;50.758;6.106;2023-07-31T02:20:50;98724.16;;;15.56;100.00
73151;BME280;61354;50.758;6.106;2023-07-31T02:23:17;98735.72;;;15.54;100.00
73151;BME280;61354;50.758;6.106;2023-07-31T02:25:44;98721.72;;;15.54;100.00
73151;BME280;61354;50.758;6.106;2023-07-31T02:28:10;98720.53;;;15.59;100.00
73151;BME280;61354;50.758;6.106;2023-07-31T02:30:35;98722.13;;;15.56;100.00
73151;BME280;61354;50.758;6.106;2023-07-31T02:33:01;98725.72;;;15.60;100.00
73151;BME280;61354;50.758;6.106;2023-07-31T02:35:26;98722.53;;;15.58;100.00
73151;BME280;61354;50.758;6.106;2023-07-31T02:37:52;98723.31;;;15.62;100.00
73151;BME280;61354;50.758;6.106;2023-07-31T02:40:18;98717.72;;;15.62;100.00
73151;BME280;61354;50.758;6.106;2023-07-31T02:42:43;98722.94;;;15.64;100.00
73151;BME280;61354;50.758;6.106;2023-07-31T02:45:09;98711.75;;;15.64;100.00
73151;BME280;61354;50.758;6.106;2023-07-31T02:47:34;98708.16;;;15.67;100.00
73151;BME280;61354;50.758;6.106;2023-07-31T02:50:03;98714.56;;;15.68;100.00
73151;BME280;61354;50.758;6.106;2023-07-31T02:52:29;98712.94;;;15.70;100.00
73151;BME280;61354;50.758;6.106;2023-07-31T02:54:55;98716.97;;;15.65;100.00
73151;BME280;61354;50.758;6.106;2023-07-31T02:57:20;98707.75;;;15.69;100.00
73151;BME280;61354;50.758;6.106;2023-07-31T02:59:46;98706.97;;;15.68;100.00
73151;BME280;61354;50.758;6.106;2023-07-31T03:02:11;98710.56;;;15.69;100.00
73151;BME280;61354;50.758;6.106;2023-07-31T03:04:38;98700.56;;;15.68;100.00
73151;BME280;61354;50.758;6.106;2023-07-31T03:07:04;98698.56;;;15.68;100.00
73151;BME280;61354;50.758;6.106;2023-07-31T03:09:30;98697.38;;;15.65;100.00
73151;BME280;61354;50.758;6.106;2023-07-31T03:11:56;98696.16;;;15.66;100.00
73151;BME280;61354;50.758;6.106;2023-07-31T03:14:21;98692.16;;;15.64;100.00
73151;BME280;61354;50.758;6.106;2023-07-31T03:16:47;98682.16;;;15.66;100.00
73151;BME280;61354;50.758;6.106;2023-07-31T03:19:13;98681.38;;;15.66;100.00
73151;BME280;61354;50.758;6.106;2023-07-31T03:21:38;98684.16;;;15.70;100.00
73151;BME280;61354;50.758;6.106;2023-07-31T03:24:04;98676.97;;;15.69;100.00
73151;BME280;61354;50.758;6.106;2023-07-31T03:26:31;98684.16;;;15.70;100.00
73151;BME280;61354;50.758;6.106;2023-07-31T03:28:57;98680.16;;;15.71;100.00
73151;BME280;61354;50.758;6.106;2023-07-31T03:31:22;98673.75;;;15.70;100.00
73151;BME280;61354;50.758;6.106;2023-07-31T03:33:48;98677.34;;;15.71;100.00
73151;BME280;61354;50.758;6.106;2023-07-31T03:36:13;98676.13;;;15.72;100.00
73151;BME280;61354;50.758;6.106;2023-07-31T03:38:39;98677.34;;;15.71;100.00
73151;BME280;61354;50.758;6.106;2023-07-31T03:41:04;98672.97;;;15.70;100.00
73151;BME280;61354;50.758;6.106;2023-07-31T03:43:32;98686.53;;;15.75;100.00
73151;BME280;61354;50.758;6.106;2023-07-31T03:46:00;98667.34;;;15.73;100.00
73151;BME280;61354;50.758;6.106;2023-07-31T03:48:25;98671.38;;;15.72;100.00
73151;BME280;61354;50.758;6.106;2023-07-31T03:50:51;98660.97;;;15.73;100.00
73151;BME280;61354;50.758;6.106;2023-07-31T03:53:17;98666.56;;;15.73;100.00
73151;BME280;61354;50.758;6.106;2023-07-31T03:55:42;98660.97;;;15.73;100.00
73151;BME280;61354;50.758;6.106;2023-07-31T03:58:08;98663.34;;;15.71;100.00
73151;BME280;61354;50.758;6.106;2023-07-31T04:00:33;98647.34;;;15.71;100.00
73151;BME280;61354;50.758;6.106;2023-07-31T04:02:59;98651.38;;;15.66;100.00
73151;BME280;61354;50.758;6.106;2023-07-31T04:05:25;98652.16;;;15.71;100.00
73151;BME280;61354;50.758;6.106;2023-07-31T04:07:51;98646.97;;;15.69;100.00
73151;BME280;61354;50.758;6.106;2023-07-31T04:10:17;98642.97;;;15.66;100.00
73151;BME280;61354;50.758;6.106;2023-07-31T04:12:42;98657.38;;;15.69;100.00
73151;BME280;61354;50.758;6.106;2023-07-31T04:15:08;98644.97;;;15.70;100.00
73151;BME280;61354;50.758;6.106;2023-07-31T04:17:34;98644.97;;;15.70;100.00
73151;BME280;61354;50.758;6.106;2023-07-31T04:19:59;98632.19;;;15.69;100.00
73151;BME280;61354;50.758;6.106;2023-07-31T04:22:25;98628.97;;;15.70;100.00
73151;BME280;61354;50.758;6.106;2023-07-31T04:24:50;98642.59;;;15.68;100.00
73151;BME280;61354;50.758;6.106;2023-07-31T04:27:16;98641.78;;;15.68;100.00
73151;BME280;61354;50.758;6.106;2023-07-31T04:29:41;98642.59;;;15.68;100.00
73151;BME280;61354;50.758;6.106;2023-07-31T04:32:08;98636.59;;;15.66;100.00
73151;BME280;61354;50.758;6.106;2023-07-31T04:34:34;98639.78;;;15.68;100.00
73151;BME280;61354;50.758;6.106;2023-07-31T04:36:59;98640.16;;;15.70;100.00
73151;BME280;61354;50.758;6.106;2023-07-31T04:39:25;98625.00;;;15.68;100.00
73151;BME280;61354;50.758;6.106;2023-07-31T04:41:50;98620.16;;;15.72;100.00
73151;BME280;61354;50.758;6.106;2023-07-31T04:44:16;98620.56;;;15.74;100.00
73151;BME280;61354;50.758;6.106;2023-07-31T04:46:41;98616.97;;;15.73;100.00
73151;BME280;61354;50.758;6.106;2023-07-31T04:49:07;98622.56;;;15.77;100.00
73151;BME280;61354;50.758;6.106;2023-07-31T04:51:32;98621.72;;;15.80;100.00
73151;BME280;61354;50.758;6.106;2023-07-31T04:53:58;98619.34;;;15.82;100.00
73151;BME280;61354;50.758;6.106;2023-07-31T04:56:23;98617.75;;;15.84;100.00
73151;BME280;61354;50.758;6.106;2023-07-31T04:58:49;98620.13;;;15.86;100.00
73151;BME280;61354;50.758;6.106;2023-07-31T05:01:14;98608.91;;;15.86;100.00
73151;BME280;61354;50.758;6.106;2023-07-31T05:03:40;98614.53;;;15.86;100.00
73151;BME280;61354;50.758;6.106;2023-07-31T05:06:06;98616.09;;;15.87;100.00
73151;BME280;61354;50.758;6.106;2023-07-31T05:08:31;98622.50;;;15.91;100.00
73151;BME280;61354;50.758;6.106;2023-07-31T05:10:57;98623.28;;;15.88;100.00
73151;BME280;61354;50.758;6.106;2023-07-31T05:13:22;98607.28;;;15.92;100.00
73151;BME280;61354;50.758;6.106;2023-07-31T05:15:48;98607.69;;;15.94;100.00
73151;BME280;61354;50.758;6.106;2023-07-31T05:18:15;98600.09;;;15.91;100.00
73151;BME280;61354;50.758;6.106;2023-07-31T05:20:40;98596.50;;;15.90;100.00
73151;BME280;61354;50.758;6.106;2023-07-31T05:23:06;98600.88;;;15.91;100.00
73151;BME280;61354;50.758;6.106;2023-07-31T05:25:32;98599.31;;;15.83;100.00
73151;BME280;61354;50.758;6.106;2023-07-31T05:27:57;98592.56;;;15.77;100.00
73151;BME280;61354;50.758;6.106;2023-07-31T05:30:23;98585.78;;;15.71;100.00
73151;BME280;61354;50.758;6.106;2023-07-31T05:32:48;98590.59;;;15.67;100.00
73151;BME280;61354;50.758;6.106;2023-07-31T05:35:14;98590.59;;;15.63;100.00
73151;BME280;61354;50.758;6.106;2023-07-31T05:37:39;98579.41;;;15.63;100.00
73151;BME280;61354;50.758;6.106;2023-07-31T05:40:05;98587.38;;;15.61;100.00
73151;BME280;61354;50.758;6.106;2023-07-31T05:42:31;98588.97;;;15.62;100.00
73151;BME280;61354;50.758;6.106;2023-07-31T05:44:57;98573.03;;;15.59;100.00
73151;BME280;61354;50.758;6.106;2023-07-31T05:47:22;98575.41;;;15.57;100.00
73151;BME280;61354;50.758;6.106;2023-07-31T05:49:48;98573.81;;;15.60;100.00
73151;BME280;61354;50.758;6.106;2023-07-31T05:52:14;98565.00;;;15.61;100.00
73151;BME280;61354;50.758;6.106;2023-07-31T05:54:42;98564.22;;;15.64;100.00
73151;BME280;61354;50.758;6.106;2023-07-31T05:57:07;98562.59;;;15.63;100.00
73151;BME280;61354;50.758;6.106;2023-07-31T05:59:33;98556.63;;;15.69;100.00
73151;BME280;61354;50.758;6.106;2023-07-31T06:01:59;98562.59;;;15.71;100.00
73151;BME280;61354;50.758;6.106;2023-07-31T06:04:24;98549.38;;;15.75;100.00
73151;BME280;61354;50.758;6.106;2023-07-31T06:06:51;98544.97;;;15.77;100.00
73151;BME280;61354;50.758;6.106;2023-07-31T06:09:17;98532.97;;;15.80;100.00
73151;BME280;61354;50.758;6.106;2023-07-31T06:11:42;98538.53;;;15.84;100.00
73151;BME280;61354;50.758;6.106;2023-07-31T06:14:08;98539.34;;;15.84;100.00
73151;BME280;61354;50.758;6.106;2023-07-31T06:16:34;98545.69;;;15.92;100.00
73151;BME280;61354;50.758;6.106;2023-07-31T06:19:00;98542.06;;;15.95;100.00
73151;BME280;61354;50.758;6.106;2023-07-31T06:21:26;98535.66;;;15.98;100.00
73151;BME280;61354;50.758;6.106;2023-07-31T06:23:52;98534.03;;;16.01;100.00
73151;BME280;61354;50.758;6.106;2023-07-31T06:26:17;98536.00;;;16.07;100.00
73151;BME280;61354;50.758;6.106;2023-07-31T06:28:43;98548.00;;;16.08;100.00
73151;BME280;61354;50.758;6.106;2023-07-31T06:31:09;98543.97;;;16.09;100.00
73151;BME280;61354;50.758;6.106;2023-07-31T06:33:35;98548.78;;;16.08;100.00
73151;BME280;61354;50.758;6.106;2023-07-31T06:36:00;98547.97;;;16.11;100.00
73151;BME280;61354;50.758;6.106;2023-07-31T06:38:26;98543.16;;;16.12;100.00
73151;BME280;61354;50.758;6.106;2023-07-31T06:40:52;98542.38;;;16.11;100.00
73151;BME280;61354;50.758;6.106;2023-07-31T06:43:18;98549.56;;;16.12;100.00
73151;BME280;61354;50.758;6.106;2023-07-31T06:45:44;98531.97;;;16.08;100.00
73151;BME280;61354;50.758;6.106;2023-07-31T06:48:09;98536.78;;;16.11;100.00
73151;BME280;61354;50.758;6.106;2023-07-31T06:50:35;98536.78;;;16.11;100.00
73151;BME280;61354;50.758;6.106;2023-07-31T06:53:01;98529.59;;;16.10;100.00
73151;BME280;61354;50.758;6.106;2023-07-31T06:55:27;98543.19;;;16.08;100.00
73151;BME280;61354;50.758;6.106;2023-07-31T06:57:54;98549.59;;;16.09;100.00
73151;BME280;61354;50.758;6.106;2023-07-31T07:00:21;98550.44;;;16.02;100.00
73151;BME280;61354;50.758;6.106;2023-07-31T07:02:48;98560.84;;;16.05;100.00
73151;BME280;61354;50.758;6.106;2023-07-31T07:05:14;98572.84;;;15.99;100.00
73151;BME280;61354;50.758;6.106;2023-07-31T07:07:40;98564.88;;;15.94;100.00
73151;BME280;61354;50.758;6.106;2023-07-31T07:10:06;98554.50;;;15.87;100.00
73151;BME280;61354;50.758;6.106;2023-07-31T07:12:33;98554.53;;;15.83;100.00
73151;BME280;61354;50.758;6.106;2023-07-31T07:14:59;98562.59;;;15.71;100.00
73151;BME280;61354;50.758;6.106;2023-07-31T07:17:26;98552.97;;;15.72;100.00
73151;BME280;61354;50.758;6.106;2023-07-31T07:19:52;98549.81;;;15.70;100.00
73151;BME280;61354;50.758;6.106;2023-07-31T07:22:18;98546.56;;;15.75;100.00
73151;BME280;61354;50.758;6.106;2023-07-31T07:24:43;98546.91;;;15.84;100.00
73151;BME280;61354;50.758;6.106;2023-07-31T07:27:09;98544.19;;;15.73;100.00
73151;BME280;61354;50.758;6.106;2023-07-31T07:29:35;98531.34;;;15.79;100.00
73151;BME280;61354;50.758;6.106;2023-07-31T07:32:01;98521.72;;;15.84;100.00
73151;BME280;61354;50.758;6.106;2023-07-31T07:34:27;98524.16;;;15.78;100.00
73151;BME280;61354;50.758;6.106;2023-07-31T07:36:53;98523.75;;;15.80;100.00
73151;BME280;61354;50.758;6.106;2023-07-31T07:39:19;98519.78;;;15.74;100.00
73151;BME280;61354;50.758;6.106;2023-07-31T07:41:46;98519.78;;;15.77;100.00
73151;BME280;61354;50.758;6.106;2023-07-31T07:44:12;98519.34;;;15.82;100.00
73151;BME280;61354;50.758;6.106;2023-07-31T07:46:38;98516.50;;;15.93;100.00
73151;BME280;61354;50.758;6.106;2023-07-31T07:49:04;98522.47;;;15.95;100.00
73151;BME280;61354;50.758;6.106;2023-07-31T07:51:29;98517.66;;;15.99;100.00
73151;BME280;61354;50.758;6.106;2023-07-31T07:54:00;98515.28;;;15.94;100.00
73151;BME280;61354;50.758;6.106;2023-07-31T07:56:26;98504.78;;;16.09;100.00
73151;BME280;61354;50.758;6.106;2023-07-31T07:58:53;98516.75;;;16.13;100.00
73151;BME280;61354;50.758;6.106;2023-07-31T08:01:19;98519.97;;;16.11;100.00
73151;BME280;61354;50.758;6.106;2023-07-31T08:03:45;98515.59;;;16.10;100.00
73151;BME280;61354;50.758;6.106;2023-07-31T08:06:11;98514.47;;;15.97;100.00
73151;BME280;61354;50.758;6.106;2023-07-31T08:08:37;98515.97;;;16.12;100.00
73151;BME280;61354;50.758;6.106;2023-07-31T08:11:03;98503.88;;;16.26;100.00
73151;BME280;61354;50.758;6.106;2023-07-31T08:13:28;98502.22;;;16.29;100.00
73151;BME280;61354;50.758;6.106;2023-07-31T08:15:54;98500.31;;;16.19;100.00
73151;BME280;61354;50.758;6.106;2023-07-31T08:18:20;98492.69;;;16.23;100.00
73151;BME280;61354;50.758;6.106;2023-07-31T08:20:46;98497.53;;;16.15;100.00
73151;BME280;61354;50.758;6.106;2023-07-31T08:23:11;98503.91;;;16.23;100.00
73151;BME280;61354;50.758;6.106;2023-07-31T08:25:37;98499.53;;;16.18;100.00
73151;BME280;61354;50.758;6.106;2023-07-31T08:28:04;98505.53;;;16.16;100.00
73151;BME280;61354;50.758;6.106;2023-07-31T08:30:30;98502.31;;;16.22;100.00
73151;BME280;61354;50.758;6.106;2023-07-31T08:32:56;98497.53;;;16.15;100.00
73151;BME280;61354;50.758;6.106;2023-07-31T08:35:24;98503.91;;;16.23;100.00
73151;BME280;61354;50.758;6.106;2023-07-31T08:37:49;98497.88;;;16.24;100.00
73151;BME280;61354;50.758;6.106;2023-07-31T08:40:15;98508.69;;;16.26;100.00
73151;BME280;61354;50.758;6.106;2023-07-31T08:42:47;98503.06;;;16.26;100.00
73151;BME280;61354;50.758;6.106;2023-07-31T08:45:15;98503.47;;;16.24;100.00
73151;BME280;61354;50.758;6.106;2023-07-31T08:47:48;98506.22;;;16.31;100.00
73151;BME280;61354;50.758;6.106;2023-07-31T08:50:17;98497.78;;;16.38;100.00
73151;BME280;61354;50.758;6.106;2023-07-31T08:52:43;98514.59;;;16.38;100.00
73151;BME280;61354;50.758;6.106;2023-07-31T08:55:09;98496.44;;;16.50;100.00
73151;BME280;61354;50.758;6.106;2023-07-31T08:57:37;98495.63;;;16.53;100.00
73151;BME280;61354;50.758;6.106;2023-07-31T09:00:08;98503.59;;;16.58;100.00
73151;BME280;61354;50.758;6.106;2023-07-31T09:02:38;98498.06;;;16.51;100.00
73151;BME280;61354;50.758;6.106;2023-07-31T09:05:07;98510.88;;;16.52;100.00
73151;BME280;61354;50.758;6.106;2023-07-31T09:07:36;98505.72;;;16.47;100.00
73151;BME280;61354;50.758;6.106;2023-07-31T09:10:04;98507.59;;;16.57;100.00
73151;BME280;61354;50.758;6.106;2023-07-31T09:12:30;98527.53;;;16.66;100.00
73151;BME280;61354;50.758;6.106;2023-07-31T09:14:57;98510.69;;;16.70;100.00
73151;BME280;61354;50.758;6.106;2023-07-31T09:17:33;98510.28;;;16.75;100.00
73151;BME280;61354;50.758;6.106;2023-07-31T09:20:20;98515.03;;;16.82;100.00
73151;BME280;61354;50.758;6.106;2023-07-31T09:22:48;98498.50;;;16.91;100.00
73151;BME280;61354;50.758;6.106;2023-07-31T09:25:14;98500.88;;;16.96;100.00
73151;BME280;61354;50.758;6.106;2023-07-31T09:30:13;98497.94;;;17.07;100.00
73151;BME280;61354;50.758;6.106;2023-07-31T09:32:39;98498.34;;;17.09;100.00
73151;BME280;61354;50.758;6.106;2023-07-31T09:35:20;98500.72;;;17.10;100.00
73151;BME280;61354;50.758;6.106;2023-07-31T09:37:53;98501.47;;;17.14;100.00
73151;BME280;61354;50.758;6.106;2023-07-31T09:40:29;98492.59;;;17.20;100.00
73151;BME280;61354;50.758;6.106;2023-07-31T09:43:03;98500.31;;;17.08;100.00
73151;BME280;61354;50.758;6.106;2023-07-31T09:45:30;98503.00;;;17.23;100.00
73151;BME280;61354;50.758;6.106;2023-07-31T09:47:56;98495.13;;;17.10;100.00
73151;BME280;61354;50.758;6.106;2023-07-31T09:50:24;98508.28;;;16.76;100.00
73151;BME280;61354;50.758;6.106;2023-07-31T09:52:50;98502.28;;;16.74;100.00
73151;BME280;61354;50.758;6.106;2023-07-31T09:55:16;98500.31;;;16.67;100.00
73151;BME280;61354;50.758;6.106;2023-07-31T09:57:45;98492.59;;;16.82;100.00
73151;BME280;61354;50.758;6.106;2023-07-31T10:00:13;98507.44;;;16.79;100.00
73151;BME280;61354;50.758;6.106;2023-07-31T10:02:39;98509.25;;;16.55;100.00
73151;BME280;61354;50.758;6.106;2023-07-31T10:05:06;98494.84;;;16.53;100.00
73151;BME280;61354;50.758;6.106;2023-07-31T10:07:39;98508.81;;;16.56;100.00
73151;BME280;61354;50.758;6.106;2023-07-31T10:10:08;98502.41;;;16.59;100.00
73151;BME280;61354;50.758;6.106;2023-07-31T10:12:35;98508.38;;;16.61;100.00
73151;BME280;61354;50.758;6.106;2023-07-31T10:15:02;98501.50;;;16.70;100.00
73151;BME280;61354;50.758;6.106;2023-07-31T10:17:29;98511.09;;;16.24;100.00
73151;BME280;61354;50.758;6.106;2023-07-31T10:19:57;98508.78;;;16.11;100.00
73151;BME280;61354;50.758;6.106;2023-07-31T10:22:25;98512.00;;;16.06;100.00
73151;BME280;61354;50.758;6.106;2023-07-31T10:24:52;98509.59;;;16.08;100.00
73151;BME280;61354;50.758;6.106;2023-07-31T10:27:19;98510.00;;;16.07;100.00
73151;BME280;61354;50.758;6.106;2023-07-31T10:29:45;98508.81;;;16.04;100.00
73151;BME280;61354;50.758;6.106;2023-07-31T10:32:14;98506.44;;;15.99;100.00
73151;BME280;61354;50.758;6.106;2023-07-31T10:34:42;98510.44;;;16.02;100.00
73151;BME280;61354;50.758;6.106;2023-07-31T10:40:12;98511.69;;;15.97;100.00
73151;BME280;61354;50.758;6.106;2023-07-31T10:42:48;98502.88;;;15.95;100.00
73151;BME280;61354;50.758;6.106;2023-07-31T10:47:59;98500.00;;;16.09;100.00
73151;BME280;61354;50.758;6.106;2023-07-31T10:50:26;98494.72;;;16.19;100.00
73151;BME280;61354;50.758;6.106;2023-07-31T10:52:54;98486.94;;;16.40;100.00
73151;BME280;61354;50.758;6.106;2023-07-31T10:58:13;98477.28;;;16.45;100.00
73151;BME280;61354;50.758;6.106;2023-07-31T11:00:41;98484.47;;;16.46;100.00
73151;BME280;61354;50.758;6.106;2023-07-31T11:03:16;98476.19;;;16.32;100.00
73151;BME280;61354;50.758;6.106;2023-07-31T11:10:43;98474.53;;;16.38;100.00
73151;BME280;61354;50.758;6.106;2023-07-31T11:13:10;98466.09;;;16.41;100.00
73151;BME280;61354;50.758;6.106;2023-07-31T11:15:35;98478.16;;;16.38;100.00
73151;BME280;61354;50.758;6.106;2023-07-31T11:18:02;98480.50;;;16.47;100.00
73151;BME280;61354;50.758;6.106;2023-07-31T11:20:32;98485.31;;;16.43;100.00
73151;BME280;61354;50.758;6.106;2023-07-31T11:22:59;98480.50;;;16.47;100.00
73151;BME280;61354;50.758;6.106;2023-07-31T11:25:25;98476.47;;;16.48;100.00
73151;BME280;61354;50.758;6.106;2023-07-31T11:27:51;98480.50;;;16.44;100.00
73151;BME280;61354;50.758;6.106;2023-07-31T11:30:19;98480.03;;;16.52;100.00
73151;BME280;61354;50.758;6.106;2023-07-31T11:32:45;98475.19;;;16.56;100.00
73151;BME280;61354;50.758;6.106;2023-07-31T11:35:14;98461.50;;;16.65;100.00
73151;BME280;61354;50.758;6.106;2023-07-31T11:37:43;98477.06;;;16.70;100.00
73151;BME280;61354;50.758;6.106;2023-07-31T11:40:10;98475.50;;;16.65;100.00
73151;BME280;61354;50.758;6.106;2023-07-31T11:42:36;98466.38;;;16.54;100.00
73151;BME280;61354;50.758;6.106;2023-07-31T11:45:05;98465.94;;;16.63;100.00
73151;BME280;61354;50.758;6.106;2023-07-31T11:47:36;98459.88;;;16.68;100.00
73151;BME280;61354;50.758;6.106;2023-07-31T11:50:03;98447.88;;;16.68;100.00
73151;BME280;61354;50.758;6.106;2023-07-31T11:52:33;98449.06;;;16.66;100.00
73151;BME280;61354;50.758;6.106;2023-07-31T11:54:59;98461.03;;;16.71;100.00
73151;BME280;61354;50.758;6.106;2023-07-31T11:57:26;98461.97;;;16.57;100.00
73151;BME280;61354;50.758;6.106;2023-07-31T11:59:52;98459.94;;;16.61;100.00
73151;BME280;61354;50.758;6.106;2023-07-31T12:02:18;98467.91;;;16.62;100.00
73151;BME280;61354;50.758;6.106;2023-07-31T12:04:45;98457.91;;;16.61;100.00
73151;BME280;61354;50.758;6.106;2023-07-31T12:07:11;98474.75;;;16.61;100.00
73151;BME280;61354;50.758;6.106;2023-07-31T12:09:38;98448.19;;;16.77;100.00
73151;BME280;61354;50.758;6.106;2023-07-31T12:12:08;98447.44;;;16.73;100.00
73151;BME280;61354;50.758;6.106;2023-07-31T12:14:33;98446.63;;;16.76;100.00
73151;BME280;61354;50.758;6.106;2023-07-31T12:17:03;98449.03;;;16.74;100.00
73151;BME280;61354;50.758;6.106;2023-07-31T12:19:29;98442.16;;;16.78;100.00
73151;BME280;61354;50.758;6.106;2023-07-31T12:21:59;98432.75;;;16.96;100.00
73151;BME280;61354;50.758;6.106;2023-07-31T12:24:28;98428.16;;;17.12;100.00
73151;BME280;61354;50.758;6.106;2023-07-31T12:26:54;98426.50;;;17.19;100.00
73151;BME280;61354;50.758;6.106;2023-07-31T12:29:20;98428.00;;;17.27;100.00
73151;BME280;61354;50.758;6.106;2023-07-31T12:31:46;98429.09;;;17.33;100.00
73151;BME280;61354;50.758;6.106;2023-07-31T12:34:18;98423.59;;;17.26;100.00
73151;BME280;61354;50.758;6.106;2023-07-31T12:36:46;98434.44;;;17.24;100.00
73151;BME280;61354;50.758;6.106;2023-07-31T12:39:12;98440.50;;;17.19;100.00
73151;BME280;61354;50.758;6.106;2023-07-31T12:41:43;98437.31;;;17.17;100.00
73151;BME280;61354;50.758;6.106;2023-07-31T12:44:09;98433.31;;;17.18;100.00
73151;BME280;61354;50.758;6.106;2023-07-31T12:46:35;98430.84;;;17.23;100.00
73151;BME280;61354;50.758;6.106;2023-07-31T12:49:01;98423.09;;;17.34;100.00
73151;BME280;61354;50.758;6.106;2023-07-31T12:51:26;98398.53;;;17.42;100.00
73151;BME280;61354;50.758;6.106;2023-07-31T12:53:52;98378.31;;;17.54;100.00
73151;BME280;61354;50.758;6.106;2023-07-31T12:56:18;98355.63;;;17.69;100.00
73151;BME280;61354;50.758;6.106;2023-07-31T12:58:43;98334.59;;;17.80;100.00
73151;BME280;61354;50.758;6.106;2023-07-31T13:01:09;98327.94;;;17.94;100.00
73151;BME280;61354;50.758;6.106;2023-07-31T13:03:34;98319.91;;;17.96;100.00
73151;BME280;61354;50.758;6.106;2023-07-31T13:06:00;98327.22;;;17.90;100.00
73151;BME280;61354;50.758;6.106;2023-07-31T13:08:25;98322.94;;;18.05;100.00